sensor_id;sensor_type;location;lat;lon;timestamp;pressure;altitude;pressure_sealevel;temperature;humidity
47524;BME280;33253;42.144;25.884;2023-01-24T00:01:20;101959.31;;;4.26;100.00
47524;BME280;33253;42.144;25.884;2023-01-24T00:03:46;101934.63;;;4.27;100.00
47524;BME280;33253;42.144;25.884;2023-01-24T00:06:12;101917.34;;;4.24;100.00
47524;BME280;33253;42.144;25.884;2023-01-24T00:08:37;101937.25;;;4.08;100.00
47524;BME280;33253;42.144;25.884;2023-01-24T00:11:05;101938.03;;;4.17;100.00
47524;BME280;33253;42.144;25.884;2023-01-24T00:13:31;101947.72;;;4.11;100.00
47524;BME280;33253;42.144;25.884;2023-01-24T00:18:34;101854.84;;;3.70;100.00
47524;BME280;33253;42.144;25.884;2023-01-24T00:21:01;101903.72;;;3.94;100.00
47524;BME280;33253;42.144;25.884;2023-01-24T00:23:27;101877.63;;;3.88;100.00
47524;BME280;33253;42.144;25.884;2023-01-24T00:25:52;101866.25;;;3.84;100.00
47524;BME280;33253;42.144;25.884;2023-01-24T00:28:17;101936.53;;;4.29;100.00
47524;BME280;33253;42.144;25.884;2023-01-24T00:30:43;101906.44;;;4.06;100.00
47524;BME280;33253;42.144;25.884;2023-01-24T00:33:08;101931.94;;;4.25;100.00
47524;BME280;33253;42.144;25.884;2023-01-24T00:35:34;101920.00;;;4.15;100.00
47524;BME280;33253;42.144;25.884;2023-01-24T00:37:59;101941.91;;;4.32;100.00
47524;BME280;33253;42.144;25.884;2023-01-24T00:40:24;101955.50;;;4.42;100.00
47524;BME280;33253;42.144;25.884;2023-01-24T00:42:50;101936.13;;;4.25;100.00
47524;BME280;33253;42.144;25.884;2023-01-24T00:45:16;101926.00;;;4.16;100.00
47524;BME280;33253;42.144;25.884;2023-01-24T00:47:42;101938.44;;;4.21;100.00
47524;BME280;33253;42.144;25.884;2023-01-24T00:50:07;101959.31;;;4.26;100.00
47524;BME280;33253;42.144;25.884;2023-01-24T00:52:33;101881.94;;;3.79;100.00
47524;BME280;33253;42.144;25.884;2023-01-24T00:54:58;101915.41;;;4.11;100.00
47524;BME280;33253;42.144;25.884;2023-01-24T00:57:24;101842.56;;;3.66;100.00
47524;BME280;33253;42.144;25.884;2023-01-24T00:59:49;101943.69;;;4.23;100.00
47524;BME280;33253;42.144;25.884;2023-01-24T01:02:15;101940.69;;;4.08;100.00
47524;BME280;33253;42.144;25.884;2023-01-24T01:04:40;101946.03;;;4.01;100.00
47524;BME280;33253;42.144;25.884;2023-01-24T01:07:06;101951.31;;;4.13;100.00
47524;BME280;33253;42.144;25.884;2023-01-24T01:09:31;101865.88;;;3.50;100.00
47524;BME280;33253;42.144;25.884;2023-01-24T01:11:57;101865.44;;;3.35;100.00
47524;BME280;33253;42.144;25.884;2023-01-24T01:14:22;101954.78;;;3.84;100.00
47524;BME280;33253;42.144;25.884;2023-01-24T01:16:47;101924.91;;;3.64;100.00
47524;BME280;33253;42.144;25.884;2023-01-24T01:19:13;101913.69;;;3.43;100.00
47524;BME280;33253;42.144;25.884;2023-01-24T01:21:38;101952.53;;;3.68;100.00
47524;BME280;33253;42.144;25.884;2023-01-24T01:24:04;101880.56;;;3.34;100.00
47524;BME280;33253;42.144;25.884;2023-01-24T01:26:29;101946.28;;;3.75;100.00
47524;BME280;33253;42.144;25.884;2023-01-24T01:28:56;101838.53;;;3.20;100.00
47524;BME280;33253;42.144;25.884;2023-01-24T01:31:22;101953.75;;;3.82;100.00
47524;BME280;33253;42.144;25.884;2023-01-24T01:33:47;101927.69;;;3.56;100.00
47524;BME280;33253;42.144;25.884;2023-01-24T01:36:13;101869.56;;;3.24;100.00
47524;BME280;33253;42.144;25.884;2023-01-24T01:38:38;101922.50;;;3.65;100.00
47524;BME280;33253;42.144;25.884;2023-01-24T01:41:12;101915.06;;;3.58;100.00
47524;BME280;33253;42.144;25.884;2023-01-24T01:43:38;101944.03;;;3.78;100.00
47524;BME280;33253;42.144;25.884;2023-01-24T01:46:25;101933.56;;;3.55;100.00
47524;BME280;33253;42.144;25.884;2023-01-24T01:48:55;101950.09;;;3.69;100.00
47524;BME280;33253;42.144;25.884;2023-01-24T01:53:58;101890.31;;;3.19;100.00
47524;BME280;33253;42.144;25.884;2023-01-24T01:56:44;101966.13;;;3.58;100.00
47524;BME280;33253;42.144;25.884;2023-01-24T01:59:35;101960.59;;;3.53;100.00
47524;BME280;33253;42.144;25.884;2023-01-24T02:02:05;101956.41;;;3.54;100.00
47524;BME280;33253;42.144;25.884;2023-01-24T02:04:34;101963.72;;;3.60;100.00
47524;BME280;33253;42.144;25.884;2023-01-24T02:07:11;101960.75;;;3.55;100.00
47524;BME280;33253;42.144;25.884;2023-01-24T02:09:44;101951.97;;;3.43;100.00
47524;BME280;33253;42.144;25.884;2023-01-24T02:12:19;101960.44;;;3.42;100.00
47524;BME280;33253;42.144;25.884;2023-01-24T02:14:48;101892.31;;;2.94;100.00
47524;BME280;33253;42.144;25.884;2023-01-24T02:17:34;101962.88;;;3.31;100.00
47524;BME280;33253;42.144;25.884;2023-01-24T02:25:16;101971.81;;;3.45;100.00
47524;BME280;33253;42.144;25.884;2023-01-24T02:27:44;101951.72;;;3.39;100.00
47524;BME280;33253;42.144;25.884;2023-01-24T02:30:10;101953.22;;;3.37;100.00
47524;BME280;33253;42.144;25.884;2023-01-24T02:32:35;101966.09;;;3.48;100.00
47524;BME280;33253;42.144;25.884;2023-01-24T02:35:02;101960.75;;;3.36;100.00
47524;BME280;33253;42.144;25.884;2023-01-24T02:37:27;101977.44;;;3.32;100.00
47524;BME280;33253;42.144;25.884;2023-01-24T02:40:03;101967.66;;;3.37;100.00
47524;BME280;33253;42.144;25.884;2023-01-24T02:42:33;101944.41;;;3.15;100.00
47524;BME280;33253;42.144;25.884;2023-01-24T02:47:40;101973.72;;;3.29;100.00
47524;BME280;33253;42.144;25.884;2023-01-24T02:50:09;101959.38;;;3.20;100.00
47524;BME280;33253;42.144;25.884;2023-01-24T02:52:35;101947.91;;;3.06;100.00
47524;BME280;33253;42.144;25.884;2023-01-24T02:55:19;101970.47;;;3.21;100.00
47524;BME280;33253;42.144;25.884;2023-01-24T02:57:44;101938.19;;;3.02;100.00
47524;BME280;33253;42.144;25.884;2023-01-24T03:00:28;101980.44;;;3.18;100.00
47524;BME280;33253;42.144;25.884;2023-01-24T03:02:54;101851.38;;;2.45;100.00
47524;BME280;33253;42.144;25.884;2023-01-24T03:05:19;101966.94;;;3.10;100.00
47524;BME280;33253;42.144;25.884;2023-01-24T03:07:45;101966.75;;;3.17;100.00
47524;BME280;33253;42.144;25.884;2023-01-24T03:10:12;101962.25;;;3.15;100.00
47524;BME280;33253;42.144;25.884;2023-01-24T03:12:38;101985.72;;;3.30;100.00
47524;BME280;33253;42.144;25.884;2023-01-24T03:15:22;101980.06;;;3.04;100.00
47524;BME280;33253;42.144;25.884;2023-01-24T03:18:06;101980.91;;;2.86;100.00
47524;BME280;33253;42.144;25.884;2023-01-24T03:20:50;101852.66;;;2.03;100.00
47524;BME280;33253;42.144;25.884;2023-01-24T03:23:34;101987.84;;;2.78;100.00
47524;BME280;33253;42.144;25.884;2023-01-24T03:26:18;101896.88;;;2.32;100.00
47524;BME280;33253;42.144;25.884;2023-01-24T03:29:02;101995.72;;;2.90;100.00
47524;BME280;33253;42.144;25.884;2023-01-24T03:31:46;101992.28;;;2.89;100.00
47524;BME280;33253;42.144;25.884;2023-01-24T03:34:29;101996.78;;;2.92;100.00
47524;BME280;33253;42.144;25.884;2023-01-24T03:36:59;101999.81;;;2.88;100.00
47524;BME280;33253;42.144;25.884;2023-01-24T03:39:25;101986.53;;;2.73;100.00
47524;BME280;33253;42.144;25.884;2023-01-24T03:42:09;101996.66;;;2.90;100.00
47524;BME280;33253;42.144;25.884;2023-01-24T03:44:35;102005.06;;;2.89;100.00
47524;BME280;33253;42.144;25.884;2023-01-24T03:47:00;102004.09;;;2.98;100.00
47524;BME280;33253;42.144;25.884;2023-01-24T03:49:26;101864.72;;;2.23;100.00
47524;BME280;33253;42.144;25.884;2023-01-24T03:52:10;102004.47;;;3.11;100.00
47524;BME280;33253;42.144;25.884;2023-01-24T03:54:57;102002.34;;;3.16;100.00
47524;BME280;33253;42.144;25.884;2023-01-24T03:57:26;101991.56;;;3.10;100.00
47524;BME280;33253;42.144;25.884;2023-01-24T03:59:52;101989.22;;;3.02;100.00
47524;BME280;33253;42.144;25.884;2023-01-24T04:02:18;102004.38;;;3.01;100.00
47524;BME280;33253;42.144;25.884;2023-01-24T04:04:44;101979.41;;;2.88;100.00
47524;BME280;33253;42.144;25.884;2023-01-24T04:07:29;101988.94;;;2.99;100.00
47524;BME280;33253;42.144;25.884;2023-01-24T04:09:54;101955.09;;;2.83;100.00
47524;BME280;33253;42.144;25.884;2023-01-24T04:12:20;102007.63;;;3.08;100.00
47524;BME280;33253;42.144;25.884;2023-01-24T04:14:46;102011.06;;;3.18;100.00
47524;BME280;33253;42.144;25.884;2023-01-24T04:17:11;102005.09;;;3.08;100.00
47524;BME280;33253;42.144;25.884;2023-01-24T04:19:37;102008.69;;;3.11;100.00
47524;BME280;33253;42.144;25.884;2023-01-24T04:22:02;101823.13;;;2.05;100.00
47524;BME280;33253;42.144;25.884;2023-01-24T04:24:28;102001.09;;;3.02;100.00
47524;BME280;33253;42.144;25.884;2023-01-24T04:26:53;101997.91;;;3.04;100.00
47524;BME280;33253;42.144;25.884;2023-01-24T04:29:19;101999.72;;;3.05;100.00
47524;BME280;33253;42.144;25.884;2023-01-24T04:31:45;101987.19;;;2.89;100.00
47524;BME280;33253;42.144;25.884;2023-01-24T04:34:11;102017.16;;;3.01;100.00
47524;BME280;33253;42.144;25.884;2023-01-24T04:36:36;102013.88;;;2.93;100.00
47524;BME280;33253;42.144;25.884;2023-01-24T04:39:02;102015.06;;;2.97;100.00
47524;BME280;33253;42.144;25.884;2023-01-24T04:41:28;102009.63;;;3.02;100.00
47524;BME280;33253;42.144;25.884;2023-01-24T04:43:53;102015.97;;;2.97;100.00
47524;BME280;33253;42.144;25.884;2023-01-24T04:46:20;101947.47;;;2.55;100.00
47524;BME280;33253;42.144;25.884;2023-01-24T04:48:46;101994.16;;;2.82;100.00
47524;BME280;33253;42.144;25.884;2023-01-24T04:51:11;102017.41;;;3.04;100.00
47524;BME280;33253;42.144;25.884;2023-01-24T04:53:40;102016.09;;;2.99;100.00
47524;BME280;33253;42.144;25.884;2023-01-24T04:56:07;102018.63;;;2.99;100.00
47524;BME280;33253;42.144;25.884;2023-01-24T04:58:33;101950.00;;;2.55;100.00
47524;BME280;33253;42.144;25.884;2023-01-24T05:00:59;102004.63;;;2.85;100.00
47524;BME280;33253;42.144;25.884;2023-01-24T05:03:25;102013.41;;;2.97;100.00
47524;BME280;33253;42.144;25.884;2023-01-24T05:05:51;102018.88;;;2.83;100.00
47524;BME280;33253;42.144;25.884;2023-01-24T05:08:17;102015.75;;;2.77;100.00
47524;BME280;33253;42.144;25.884;2023-01-24T05:10:42;102024.41;;;2.87;100.00
47524;BME280;33253;42.144;25.884;2023-01-24T05:13:08;101926.09;;;2.35;100.00
47524;BME280;33253;42.144;25.884;2023-01-24T05:15:33;102023.19;;;2.92;100.00
47524;BME280;33253;42.144;25.884;2023-01-24T05:17:59;102029.91;;;3.01;100.00
47524;BME280;33253;42.144;25.884;2023-01-24T05:20:24;102041.91;;;3.02;100.00
47524;BME280;33253;42.144;25.884;2023-01-24T05:22:50;102021.00;;;2.78;100.00
47524;BME280;33253;42.144;25.884;2023-01-24T05:25:16;102012.94;;;2.73;100.00
47524;BME280;33253;42.144;25.884;2023-01-24T05:27:43;102039.19;;;3.00;100.00
47524;BME280;33253;42.144;25.884;2023-01-24T05:30:09;102045.34;;;3.02;100.00
47524;BME280;33253;42.144;25.884;2023-01-24T05:32:34;102037.50;;;3.10;100.00
47524;BME280;33253;42.144;25.884;2023-01-24T05:35:00;101939.59;;;2.43;100.00
47524;BME280;33253;42.144;25.884;2023-01-24T05:37:25;102046.31;;;2.94;100.00
47524;BME280;33253;42.144;25.884;2023-01-24T05:39:51;102023.69;;;2.80;100.00
47524;BME280;33253;42.144;25.884;2023-01-24T05:42:16;101962.94;;;2.48;100.00
47524;BME280;33253;42.144;25.884;2023-01-24T05:44:42;102053.63;;;3.00;100.00
47524;BME280;33253;42.144;25.884;2023-01-24T05:47:07;102036.09;;;2.85;100.00
47524;BME280;33253;42.144;25.884;2023-01-24T05:49:32;102061.59;;;2.94;100.00
47524;BME280;33253;42.144;25.884;2023-01-24T05:51:58;102048.28;;;2.88;100.00
47524;BME280;33253;42.144;25.884;2023-01-24T05:54:23;101944.88;;;2.27;100.00
47524;BME280;33253;42.144;25.884;2023-01-24T05:56:49;102053.53;;;2.89;100.00
47524;BME280;33253;42.144;25.884;2023-01-24T05:59:14;101955.56;;;2.14;100.00
47524;BME280;33253;42.144;25.884;2023-01-24T06:01:40;102049.34;;;2.81;100.00
47524;BME280;33253;42.144;25.884;2023-01-24T06:04:06;102065.78;;;2.94;100.00
47524;BME280;33253;42.144;25.884;2023-01-24T06:06:31;102033.41;;;2.84;100.00
47524;BME280;33253;42.144;25.884;2023-01-24T06:08:57;102063.75;;;2.81;100.00
47524;BME280;33253;42.144;25.884;2023-01-24T06:11:24;102063.28;;;2.85;100.00
47524;BME280;33253;42.144;25.884;2023-01-24T06:13:55;102059.63;;;2.91;100.00
47524;BME280;33253;42.144;25.884;2023-01-24T06:16:23;102064.13;;;3.03;100.00
47524;BME280;33253;42.144;25.884;2023-01-24T06:18:50;102057.03;;;3.00;100.00
47524;BME280;33253;42.144;25.884;2023-01-24T06:23:53;102067.06;;;3.07;100.00
47524;BME280;33253;42.144;25.884;2023-01-24T06:26:19;102028.00;;;2.89;100.00
47524;BME280;33253;42.144;25.884;2023-01-24T06:28:45;102058.34;;;3.14;100.00
47524;BME280;33253;42.144;25.884;2023-01-24T06:31:26;102067.50;;;3.12;100.00
47524;BME280;33253;42.144;25.884;2023-01-24T06:36:38;102078.59;;;2.85;100.00
47524;BME280;33253;42.144;25.884;2023-01-24T06:39:11;102068.13;;;2.82;100.00
47524;BME280;33253;42.144;25.884;2023-01-24T06:41:38;102049.03;;;2.87;100.00
47524;BME280;33253;42.144;25.884;2023-01-24T06:44:04;102080.63;;;2.98;100.00
47524;BME280;33253;42.144;25.884;2023-01-24T06:46:29;102046.94;;;2.83;100.00
47524;BME280;33253;42.144;25.884;2023-01-24T06:48:55;101990.06;;;2.56;100.00
47524;BME280;33253;42.144;25.884;2023-01-24T06:51:20;102065.19;;;2.96;100.00
47524;BME280;33253;42.144;25.884;2023-01-24T06:53:46;102079.56;;;3.04;100.00
47524;BME280;33253;42.144;25.884;2023-01-24T06:56:11;102085.00;;;2.90;100.00
47524;BME280;33253;42.144;25.884;2023-01-24T06:58:37;102071.72;;;2.75;100.00
47524;BME280;33253;42.144;25.884;2023-01-24T07:01:02;102074.59;;;2.69;100.00
47524;BME280;33253;42.144;25.884;2023-01-24T07:03:28;102089.81;;;2.96;100.00
47524;BME280;33253;42.144;25.884;2023-01-24T07:05:54;102018.88;;;2.46;100.00
47524;BME280;33253;42.144;25.884;2023-01-24T07:08:19;102093.53;;;2.99;100.00
47524;BME280;33253;42.144;25.884;2023-01-24T07:10:46;102092.53;;;2.88;100.00
47524;BME280;33253;42.144;25.884;2023-01-24T07:13:11;102003.03;;;2.31;100.00
47524;BME280;33253;42.144;25.884;2023-01-24T07:15:36;102093.38;;;2.98;100.00
47524;BME280;33253;42.144;25.884;2023-01-24T07:18:10;102083.50;;;2.92;100.00
47524;BME280;33253;42.144;25.884;2023-01-24T07:20:36;102063.63;;;2.70;100.00
47524;BME280;33253;42.144;25.884;2023-01-24T07:23:02;102027.91;;;2.70;100.00
47524;BME280;33253;42.144;25.884;2023-01-24T07:25:28;102082.28;;;2.97;100.00
47524;BME280;33253;42.144;25.884;2023-01-24T07:27:54;102084.63;;;3.13;100.00
47524;BME280;33253;42.144;25.884;2023-01-24T07:30:20;102086.81;;;3.19;100.00
47524;BME280;33253;42.144;25.884;2023-01-24T07:32:45;102075.16;;;3.12;100.00
47524;BME280;33253;42.144;25.884;2023-01-24T07:35:11;102080.84;;;3.18;100.00
47524;BME280;33253;42.144;25.884;2023-01-24T07:37:36;102096.59;;;3.23;100.00
47524;BME280;33253;42.144;25.884;2023-01-24T07:40:03;102085.00;;;3.27;100.00
47524;BME280;33253;42.144;25.884;2023-01-24T07:42:29;102016.56;;;2.95;100.00
47524;BME280;33253;42.144;25.884;2023-01-24T07:44:54;102092.63;;;3.35;100.00
47524;BME280;33253;42.144;25.884;2023-01-24T07:47:22;102078.78;;;3.14;100.00
47524;BME280;33253;42.144;25.884;2023-01-24T07:49:47;102097.94;;;3.19;100.00
47524;BME280;33253;42.144;25.884;2023-01-24T07:52:13;102088.50;;;3.18;100.00
47524;BME280;33253;42.144;25.884;2023-01-24T07:54:38;102094.00;;;3.32;100.00
47524;BME280;33253;42.144;25.884;2023-01-24T07:57:04;102067.59;;;3.22;100.00
47524;BME280;33253;42.144;25.884;2023-01-24T07:59:29;102090.50;;;3.31;100.00
47524;BME280;33253;42.144;25.884;2023-01-24T08:01:55;102107.41;;;3.20;100.00
47524;BME280;33253;42.144;25.884;2023-01-24T08:04:20;102033.31;;;2.73;100.00
47524;BME280;33253;42.144;25.884;2023-01-24T08:06:45;102101.34;;;3.29;100.00
47524;BME280;33253;42.144;25.884;2023-01-24T08:09:29;102074.56;;;3.15;100.00
47524;BME280;33253;42.144;25.884;2023-01-24T08:11:55;102027.03;;;2.98;100.00
47524;BME280;33253;42.144;25.884;2023-01-24T08:14:21;102117.53;;;3.38;100.00
47524;BME280;33253;42.144;25.884;2023-01-24T08:16:48;102107.63;;;3.32;100.00
47524;BME280;33253;42.144;25.884;2023-01-24T08:19:13;102103.34;;;3.50;100.00
47524;BME280;33253;42.144;25.884;2023-01-24T08:21:38;102096.94;;;3.36;100.00
47524;BME280;33253;42.144;25.884;2023-01-24T08:24:04;102095.34;;;3.28;100.00
47524;BME280;33253;42.144;25.884;2023-01-24T08:26:30;102120.53;;;3.34;100.00
47524;BME280;33253;42.144;25.884;2023-01-24T08:28:55;102131.34;;;3.31;100.00
47524;BME280;33253;42.144;25.884;2023-01-24T08:31:21;102128.94;;;3.42;100.00
47524;BME280;33253;42.144;25.884;2023-01-24T08:33:46;102047.75;;;3.01;100.00
47524;BME280;33253;42.144;25.884;2023-01-24T08:36:11;102108.78;;;3.45;100.00
47524;BME280;33253;42.144;25.884;2023-01-24T08:38:37;102116.72;;;3.48;100.00
47524;BME280;33253;42.144;25.884;2023-01-24T08:41:03;102130.06;;;3.54;100.00
47524;BME280;33253;42.144;25.884;2023-01-24T08:43:29;102046.22;;;3.12;100.00
47524;BME280;33253;42.144;25.884;2023-01-24T08:45:55;102126.41;;;3.61;100.00
47524;BME280;33253;42.144;25.884;2023-01-24T08:48:20;102104.97;;;3.50;100.00
47524;BME280;33253;42.144;25.884;2023-01-24T08:50:46;102106.22;;;3.45;100.00
47524;BME280;33253;42.144;25.884;2023-01-24T08:53:11;102112.81;;;3.43;100.00
47524;BME280;33253;42.144;25.884;2023-01-24T08:55:40;102129.09;;;3.62;100.00
47524;BME280;33253;42.144;25.884;2023-01-24T08:58:06;102111.78;;;3.68;100.00
47524;BME280;33253;42.144;25.884;2023-01-24T09:00:32;102124.91;;;3.82;100.00
47524;BME280;33253;42.144;25.884;2023-01-24T09:02:59;102104.09;;;3.87;100.00
47524;BME280;33253;42.144;25.884;2023-01-24T09:05:29;102128.94;;;4.08;100.00
47524;BME280;33253;42.144;25.884;2023-01-24T09:07:55;102103.34;;;3.88;100.00
47524;BME280;33253;42.144;25.884;2023-01-24T09:10:20;102094.25;;;3.82;100.00
47524;BME280;33253;42.144;25.884;2023-01-24T09:12:46;102120.22;;;4.05;100.00
47524;BME280;33253;42.144;25.884;2023-01-24T09:15:11;102121.09;;;4.06;100.00
47524;BME280;33253;42.144;25.884;2023-01-24T09:17:37;102110.19;;;3.98;100.00
47524;BME280;33253;42.144;25.884;2023-01-24T09:20:05;102102.09;;;3.94;100.00
47524;BME280;33253;42.144;25.884;2023-01-24T09:22:33;102120.22;;;4.05;100.00
47524;BME280;33253;42.144;25.884;2023-01-24T09:24:59;102109.03;;;4.14;100.00
47524;BME280;33253;42.144;25.884;2023-01-24T09:27:25;102054.97;;;3.90;100.00
47524;BME280;33253;42.144;25.884;2023-01-24T09:29:50;102041.91;;;3.87;100.00
47524;BME280;33253;42.144;25.884;2023-01-24T09:32:15;102094.59;;;4.14;100.00
47524;BME280;33253;42.144;25.884;2023-01-24T09:34:42;102083.47;;;3.95;100.00
47524;BME280;33253;42.144;25.884;2023-01-24T09:37:12;102098.03;;;4.15;100.00
47524;BME280;33253;42.144;25.884;2023-01-24T09:39:39;102092.66;;;4.12;100.00
47524;BME280;33253;42.144;25.884;2023-01-24T09:44:43;101973.03;;;3.59;100.00
47524;BME280;33253;42.144;25.884;2023-01-24T09:47:17;102082.13;;;4.28;100.00
47524;BME280;33253;42.144;25.884;2023-01-24T09:49:54;102001.53;;;3.83;100.00
47524;BME280;33253;42.144;25.884;2023-01-24T09:52:34;102089.81;;;4.09;100.00
47524;BME280;33253;42.144;25.884;2023-01-24T09:57:50;102067.91;;;4.21;100.00
47524;BME280;33253;42.144;25.884;2023-01-24T10:02:53;101979.00;;;3.79;100.00
47524;BME280;33253;42.144;25.884;2023-01-24T10:05:19;102069.25;;;4.36;100.00
47524;BME280;33253;42.144;25.884;2023-01-24T10:13:02;102065.47;;;4.52;100.00
47524;BME280;33253;42.144;25.884;2023-01-24T10:21:31;102060.09;;;4.49;100.00
47524;BME280;33253;42.144;25.884;2023-01-24T10:24:03;102054.91;;;4.28;100.00
47524;BME280;33253;42.144;25.884;2023-01-24T10:26:34;102054.66;;;4.25;100.00
47524;BME280;33253;42.144;25.884;2023-01-24T10:29:13;102039.88;;;4.12;100.00
47524;BME280;33253;42.144;25.884;2023-01-24T10:34:25;102031.78;;;4.37;100.00
47524;BME280;33253;42.144;25.884;2023-01-24T10:36:55;102048.16;;;4.29;100.00
47524;BME280;33253;42.144;25.884;2023-01-24T10:39:24;102015.69;;;4.09;100.00
47524;BME280;33253;42.144;25.884;2023-01-24T10:41:51;102009.06;;;4.11;100.00
47524;BME280;33253;42.144;25.884;2023-01-24T10:49:38;102030.19;;;4.48;100.00
47524;BME280;33253;42.144;25.884;2023-01-24T10:52:17;102025.41;;;4.42;100.00
47524;BME280;33253;42.144;25.884;2023-01-24T10:54:54;102014.59;;;4.55;100.00
47524;BME280;33253;42.144;25.884;2023-01-24T10:57:42;102014.84;;;4.58;100.00
47524;BME280;33253;42.144;25.884;2023-01-24T11:02:39;101926.59;;;3.93;100.00
47524;BME280;33253;42.144;25.884;2023-01-24T11:05:06;101997.25;;;4.32;100.00
47524;BME280;33253;42.144;25.884;2023-01-24T11:07:35;102000.00;;;4.44;100.00
47524;BME280;33253;42.144;25.884;2023-01-24T11:10:21;101997.19;;;4.51;100.00
47524;BME280;33253;42.144;25.884;2023-01-24T11:12:56;101977.47;;;4.40;100.00
47524;BME280;33253;42.144;25.884;2023-01-24T11:15:30;102002.06;;;4.58;100.00
47524;BME280;33253;42.144;25.884;2023-01-24T11:18:05;101994.03;;;4.64;100.00
47524;BME280;33253;42.144;25.884;2023-01-24T11:20:34;101916.97;;;4.30;100.00
47524;BME280;33253;42.144;25.884;2023-01-24T11:25:29;101822.00;;;3.65;100.00
47524;BME280;33253;42.144;25.884;2023-01-24T11:27:55;101980.09;;;4.60;100.00
47524;BME280;33253;42.144;25.884;2023-01-24T11:30:22;101976.00;;;4.62;100.00
47524;BME280;33253;42.144;25.884;2023-01-24T11:32:53;101974.97;;;4.60;100.00
47524;BME280;33253;42.144;25.884;2023-01-24T11:35:32;101976.31;;;4.36;100.00
47524;BME280;33253;42.144;25.884;2023-01-24T11:54:15;101980.59;;;4.56;100.00
47524;BME280;33253;42.144;25.884;2023-01-24T11:56:56;101981.13;;;4.62;100.00
47524;BME280;33253;42.144;25.884;2023-01-24T12:07:27;101980.50;;;4.25;100.00
47524;BME280;33253;42.144;25.884;2023-01-24T12:15:38;101820.56;;;2.99;100.00
47524;BME280;33253;42.144;25.884;2023-01-24T12:26:14;101949.91;;;3.77;100.00
47524;BME280;33253;42.144;25.884;2023-01-24T12:28:49;101980.38;;;3.94;100.00
47524;BME280;33253;42.144;25.884;2023-01-24T12:37:08;101982.34;;;3.78;100.00
47524;BME280;33253;42.144;25.884;2023-01-24T12:42:38;101977.38;;;3.79;100.00
47524;BME280;33253;42.144;25.884;2023-01-24T12:45:14;101984.31;;;3.91;100.00
47524;BME280;33253;42.144;25.884;2023-01-24T12:48:09;101992.00;;;4.20;100.00
47524;BME280;33253;42.144;25.884;2023-01-24T12:50:56;101988.94;;;4.24;100.00
47524;BME280;33253;42.144;25.884;2023-01-24T12:53:33;101984.31;;;4.20;100.00
47524;BME280;33253;42.144;25.884;2023-01-24T12:56:08;101983.19;;;4.27;100.00
47524;BME280;33253;42.144;25.884;2023-01-24T12:58:40;101991.59;;;4.15;100.00
47524;BME280;33253;42.144;25.884;2023-01-24T13:05:12;101980.13;;;4.31;100.00
47524;BME280;33253;42.144;25.884;2023-01-24T13:08:15;101969.22;;;4.13;100.00
47524;BME280;33253;42.144;25.884;2023-01-24T13:13:21;101909.28;;;3.80;100.00
47524;BME280;33253;42.144;25.884;2023-01-24T13:19:05;101991.34;;;3.93;100.00
47524;BME280;33253;42.144;25.884;2023-01-24T13:32:47;101981.25;;;3.95;100.00
47524;BME280;33253;42.144;25.884;2023-01-24T13:35:24;101969.09;;;4.11;100.00
47524;BME280;33253;42.144;25.884;2023-01-24T13:37:53;101931.84;;;4.04;100.00
47524;BME280;33253;42.144;25.884;2023-01-24T13:40:25;101992.44;;;4.45;100.00
47524;BME280;33253;42.144;25.884;2023-01-24T13:42:57;101962.63;;;4.25;100.00
47524;BME280;33253;42.144;25.884;2023-01-24T13:47:49;101995.03;;;4.56;100.00
47524;BME280;33253;42.144;25.884;2023-01-24T13:50:22;101997.34;;;4.63;100.00
47524;BME280;33253;42.144;25.884;2023-01-24T13:53:08;101986.72;;;4.58;100.00
47524;BME280;33253;42.144;25.884;2023-01-24T13:58:19;101997.44;;;4.44;100.00
47524;BME280;33253;42.144;25.884;2023-01-24T14:03:33;101970.91;;;4.23;100.00
47524;BME280;33253;42.144;25.884;2023-01-24T14:16:13;102012.81;;;4.54;100.00
47524;BME280;33253;42.144;25.884;2023-01-24T14:19:04;101990.31;;;4.50;100.00
47524;BME280;33253;42.144;25.884;2023-01-24T14:24:30;101984.91;;;4.47;100.00
47524;BME280;33253;42.144;25.884;2023-01-24T14:27:13;101998.38;;;4.65;100.00
47524;BME280;33253;42.144;25.884;2023-01-24T14:29:42;101992.75;;;4.59;100.00
47524;BME280;33253;42.144;25.884;2023-01-24T14:32:25;101986.16;;;4.42;100.00
47524;BME280;33253;42.144;25.884;2023-01-24T14:35:16;102000.22;;;4.36;100.00
47524;BME280;33253;42.144;25.884;2023-01-24T14:37:43;101999.91;;;4.23;100.00
47524;BME280;33253;42.144;25.884;2023-01-24T14:40:11;102003.13;;;4.31;100.00
47524;BME280;33253;42.144;25.884;2023-01-24T14:42:37;101992.66;;;4.28;100.00
47524;BME280;33253;42.144;25.884;2023-01-24T14:45:03;102005.13;;;4.44;100.00
47524;BME280;33253;42.144;25.884;2023-01-24T14:47:28;102009.44;;;4.45;100.00
47524;BME280;33253;42.144;25.884;2023-01-24T14:49:56;102008.97;;;4.49;100.00
47524;BME280;33253;42.144;25.884;2023-01-24T14:52:26;102010.91;;;4.62;100.00
47524;BME280;33253;42.144;25.884;2023-01-24T15:02:57;102004.75;;;4.60;100.00
47524;BME280;33253;42.144;25.884;2023-01-24T15:05:24;102021.53;;;4.56;100.00
47524;BME280;33253;42.144;25.884;2023-01-24T15:07:51;102007.50;;;4.42;100.00
47524;BME280;33253;42.144;25.884;2023-01-24T15:10:22;101993.91;;;4.23;100.00
47524;BME280;33253;42.144;25.884;2023-01-24T15:12:52;101984.69;;;4.25;100.00
47524;BME280;33253;42.144;25.884;2023-01-24T15:15:18;102023.53;;;4.10;100.00
47524;BME280;33253;42.144;25.884;2023-01-24T15:17:45;102005.97;;;4.04;100.00